Time;durP1;ratioP1;P1;durP2;ratioP2;P2;SDS_P1;SDS_P2;PMS_P1;PMS_P2;Temp;Humidity;BMP_temperature;BMP_pressure;BME280_temperature;BME280_humidity;BME280_pressure;Samples;Min_cycle;Max_cycle;Signal;HPM_P1;HPM_P2
2022/08/13 00:01:18;;;;;;;17.08;11.98;;;;;;;16.72;66.22;98631.41;5029311;28;20786;-73
2022/08/13 00:03:45;;;;;;;15.63;12.10;;;;;;;16.72;65.96;98630.63;5028292;28;20055;-73
2022/08/13 00:06:11;;;;;;;15.07;11.60;;;;;;;16.71;66.38;98627.00;5029024;28;20040;-73
2022/08/13 00:08:39;;;;;;;16.17;12.32;;;;;;;16.70;66.45;98616.28;5029324;28;20049;-74
2022/08/13 00:11:07;;;;;;;16.23;11.98;;;;;;;16.68;66.68;98613.88;5029185;28;20032;-73
2022/08/13 00:13:33;;;;;;;16.25;11.55;;;;;;;16.66;67.01;98619.72;5026730;28;20029;-73
2022/08/13 00:16:00;;;;;;;14.05;11.73;;;;;;;16.66;67.15;98622.50;5027402;28;20132;-73
2022/08/13 00:18:29;;;;;;;14.35;11.70;;;;;;;16.66;67.00;98621.69;5029451;28;20030;-73
2022/08/13 00:20:57;;;;;;;14.30;11.53;;;;;;;16.66;67.07;98616.16;5029709;28;20022;-73
2022/08/13 00:23:25;;;;;;;15.25;12.00;;;;;;;16.65;67.22;98615.31;5025899;28;20463;-73
2022/08/13 00:25:57;;;;;;;16.92;12.00;;;;;;;16.64;66.65;98619.25;5029308;28;20029;-73
2022/08/13 00:28:28;;;;;;;14.40;11.52;;;;;;;16.64;66.98;98605.41;5026983;28;20036;-73
2022/08/13 00:30:55;;;;;;;16.10;12.38;;;;;;;16.62;67.06;98609.66;5026961;28;20029;-74
2022/08/13 00:33:22;;;;;;;14.50;11.43;;;;;;;16.60;67.55;98609.97;5029297;28;20033;-73
2022/08/13 00:35:50;;;;;;;15.50;12.23;;;;;;;16.60;66.99;98595.31;5028361;28;20078;-74
2022/08/13 00:38:22;;;;;;;13.88;11.15;;;;;;;16.59;67.39;98599.25;5028482;28;20026;-74
2022/08/13 00:40:51;;;;;;;14.88;11.48;;;;;;;16.61;67.28;98606.06;5028168;28;20014;-73
2022/08/13 00:43:17;;;;;;;17.65;12.38;;;;;;;16.62;67.46;98596.59;5028902;28;20041;-74
2022/08/13 00:45:42;;;;;;;17.92;12.75;;;;;;;16.65;67.53;98597.91;5029099;28;20027;-74
2022/08/13 00:50:56;;;;;;;16.75;12.10;;;;;;;16.63;67.93;98594.66;5027991;28;20039;-73
2022/08/13 00:53:24;;;;;;;16.58;12.93;;;;;;;16.60;67.65;98589.78;5027931;28;20033;-74
2022/08/13 00:55:53;;;;;;;16.52;12.20;;;;;;;16.56;67.44;98586.84;5028822;28;20028;-75
2022/08/13 00:58:20;;;;;;;15.77;12.88;;;;;;;16.55;67.65;98581.66;5028318;28;20030;-73
2022/08/13 01:00:51;;;;;;;18.63;14.10;;;;;;;16.50;67.88;98580.72;5029076;28;20109;-73
2022/08/13 01:03:20;;;;;;;17.65;13.90;;;;;;;16.47;67.70;98583.34;5029048;28;20045;-73
2022/08/13 01:05:47;;;;;;;16.57;13.10;;;;;;;16.43;68.17;98583.19;5026024;28;20026;-73
2022/08/13 01:08:16;;;;;;;21.58;13.55;;;;;;;16.42;68.27;98583.53;5026506;28;20280;-74
2022/08/13 01:10:47;;;;;;;17.17;14.50;;;;;;;16.39;68.13;98589.72;5028670;28;20079;-74
2022/08/13 01:13:13;;;;;;;17.48;13.52;;;;;;;16.37;68.19;98588.09;5026887;28;20112;-73
2022/08/13 01:15:41;;;;;;;17.92;13.18;;;;;;;16.39;68.40;98589.72;5028825;28;20032;-73
2022/08/13 01:18:12;;;;;;;15.80;12.43;;;;;;;16.41;68.85;98579.13;5028628;28;20785;-73
2022/08/13 01:20:45;;;;;;;15.48;11.45;;;;;;;16.48;68.28;98576.66;5028082;28;20525;-74
2022/08/13 01:23:11;;;;;;;17.08;12.25;;;;;;;16.52;68.86;98577.59;5028397;28;20033;-74
2022/08/13 01:25:37;;;;;;;16.60;12.43;;;;;;;16.56;68.66;98564.72;5028582;28;20034;-75
2022/08/13 01:28:03;;;;;;;15.63;11.77;;;;;;;16.58;68.85;98569.94;5031355;28;20017;-74
2022/08/13 01:30:30;;;;;;;16.13;12.38;;;;;;;16.56;68.85;98567.47;5031232;28;20553;-74
2022/08/13 01:32:55;;;;;;;15.18;11.55;;;;;;;16.54;68.69;98566.19;5032233;28;20061;-74
2022/08/13 01:35:23;;;;;;;16.38;11.85;;;;;;;16.49;68.88;98562.47;5032335;28;20076;-73
2022/08/13 01:37:53;;;;;;;15.52;11.52;;;;;;;16.47;68.68;98563.97;5030579;28;20033;-74
2022/08/13 01:40:19;;;;;;;15.27;12.18;;;;;;;16.43;69.02;98565.78;5032554;28;20391;-74
2022/08/13 01:42:48;;;;;;;15.30;11.63;;;;;;;16.40;68.73;98567.22;5031816;28;20594;-74
2022/08/13 01:45:14;;;;;;;16.80;12.13;;;;;;;16.37;68.99;98565.13;5032148;28;20516;-74
2022/08/13 01:50:29;;;;;;;14.95;11.50;;;;;;;16.35;69.11;98559.09;5032344;28;20044;-74
2022/08/13 01:53:03;;;;;;;15.15;11.93;;;;;;;16.32;68.75;98560.59;5031989;28;20104;-74
2022/08/13 01:55:38;;;;;;;16.98;11.25;;;;;;;16.31;69.15;98563.69;5032231;28;20364;-74
2022/08/13 01:58:07;;;;;;;16.10;11.65;;;;;;;16.29;69.33;98557.69;5030667;28;20471;-74
2022/08/13 02:00:33;;;;;;;16.80;11.23;;;;;;;16.23;69.47;98554.28;5032975;28;20045;-73
2022/08/13 02:03:01;;;;;;;15.23;11.80;;;;;;;16.22;69.62;98549.88;5028752;28;20053;-74
2022/08/13 02:05:27;;;;;;;14.43;11.52;;;;;;;16.20;69.32;98553.00;5032569;28;20025;-74
2022/08/13 02:07:53;;;;;;;13.63;10.98;;;;;;;16.16;69.59;98543.75;5032006;28;20021;-74
2022/08/13 02:10:22;;;;;;;15.48;11.45;;;;;;;16.14;69.24;98546.03;5032561;28;20013;-74
2022/08/13 02:12:49;;;;;;;15.55;11.05;;;;;;;16.14;69.30;98539.66;5030733;28;20471;-74
2022/08/13 02:15:15;;;;;;;15.88;12.00;;;;;;;16.13;69.83;98547.16;5032409;28;20022;-74
2022/08/13 02:17:41;;;;;;;15.80;11.80;;;;;;;16.11;69.56;98543.91;5031776;28;20041;-74
2022/08/13 02:20:11;;;;;;;16.38;11.70;;;;;;;16.10;69.89;98535.97;5032137;28;20022;-74
2022/08/13 02:22:37;;;;;;;15.02;12.00;;;;;;;16.06;69.46;98539.38;5028788;28;20017;-74
2022/08/13 02:25:04;;;;;;;17.73;12.27;;;;;;;16.10;69.96;98541.50;5030945;28;20357;-74
2022/08/13 02:27:29;;;;;;;16.80;11.93;;;;;;;16.09;70.05;98543.44;5031530;28;20025;-74
2022/08/13 02:29:56;;;;;;;16.25;12.27;;;;;;;16.07;69.61;98545.72;5032055;28;20033;-74
2022/08/13 02:32:25;;;;;;;18.20;12.73;;;;;;;16.06;70.13;98544.91;5030466;28;20021;-74
2022/08/13 02:34:52;;;;;;;19.08;13.23;;;;;;;16.10;70.10;98542.28;5032090;28;20057;-74
2022/08/13 02:37:22;;;;;;;18.67;13.20;;;;;;;16.19;70.25;98553.31;5031403;28;20029;-74
2022/08/13 02:39:49;;;;;;;18.48;12.25;;;;;;;16.24;70.17;98547.59;5031971;28;20028;-74
2022/08/13 02:42:15;;;;;;;16.15;12.73;;;;;;;16.28;70.42;98548.56;5028958;28;20028;-74
2022/08/13 02:44:43;;;;;;;19.20;13.43;;;;;;;16.28;70.76;98543.03;5031836;28;20042;-73
2022/08/13 02:47:13;;;;;;;17.08;12.43;;;;;;;16.30;70.50;98548.25;5031393;28;20022;-74
2022/08/13 02:49:40;;;;;;;17.67;13.15;;;;;;;16.35;70.65;98545.28;5032012;28;20079;-74
2022/08/13 02:52:08;;;;;;;19.27;14.48;;;;;;;16.40;70.81;98547.06;5031714;28;20394;-74
2022/08/13 02:54:42;;;;;;;23.85;16.45;;;;;;;16.43;70.35;98540.84;5027907;28;20352;-74
2022/08/13 02:57:08;;;;;;;21.20;14.60;;;;;;;16.42;70.82;98537.25;5030513;28;20381;-74
2022/08/13 02:59:34;;;;;;;20.30;13.75;;;;;;;16.42;70.55;98536.47;5031257;28;20033;-74
2022/08/13 03:02:01;;;;;;;19.95;13.10;;;;;;;16.39;70.76;98537.13;5031532;28;20561;-74
2022/08/13 03:04:27;;;;;;;16.98;12.25;;;;;;;16.34;70.78;98530.63;5031512;28;20029;-74
2022/08/13 03:06:54;;;;;;;17.98;12.38;;;;;;;16.35;70.45;98534.19;5031833;28;20018;-74
2022/08/13 03:09:23;;;;;;;19.65;13.15;;;;;;;16.37;70.87;98534.69;5031366;28;20025;-74
2022/08/13 03:11:49;;;;;;;19.30;12.90;;;;;;;16.41;70.97;98526.53;5031495;28;20014;-74
2022/08/13 03:14:16;;;;;;;18.77;13.38;;;;;;;16.42;70.58;98528.97;5029750;28;20029;-74
2022/08/13 03:16:42;;;;;;;18.58;13.63;;;;;;;16.47;71.08;98530.75;5031947;28;20032;-74
2022/08/13 03:19:08;;;;;;;19.80;13.32;;;;;;;16.50;71.24;98543.91;5031103;28;20033;-75
2022/08/13 03:21:38;;;;;;;17.58;12.55;;;;;;;16.57;71.59;98543.38;5030112;28;20018;-73
2022/08/13 03:24:06;;;;;;;18.40;13.18;;;;;;;16.60;71.14;98542.72;5030785;28;20033;-74
2022/08/13 03:26:32;;;;;;;16.83;12.48;;;;;;;16.66;71.14;98533.09;5031009;28;20039;-74
2022/08/13 03:28:59;;;;;;;21.33;13.57;;;;;;;16.71;71.17;98535.63;5031142;28;20072;-74
2022/08/13 03:31:28;;;;;;;20.40;13.50;;;;;;;16.72;71.43;98530.91;5030948;28;20028;-75
2022/08/13 03:33:58;;;;;;;18.17;12.93;;;;;;;16.71;71.17;98532.06;5031224;28;20107;-75
2022/08/13 03:36:25;;;;;;;17.65;12.77;;;;;;;16.70;71.36;98527.66;5030451;28;20105;-75
2022/08/13 03:38:50;;;;;;;18.75;13.48;;;;;;;16.69;71.36;98528.81;5030926;28;20532;-74
2022/08/13 03:41:16;;;;;;;18.35;13.30;;;;;;;16.72;71.00;98530.91;5030554;28;20037;-74
2022/08/13 03:43:44;;;;;;;20.25;13.80;;;;;;;16.71;71.22;98529.28;5030411;28;20530;-74
2022/08/13 03:46:16;;;;;;;21.27;14.07;;;;;;;16.75;71.14;98538.56;5030607;28;20527;-74
2022/08/13 03:48:42;;;;;;;21.17;13.65;;;;;;;16.80;71.50;98528.09;5030419;28;20021;-74
2022/08/13 03:51:08;;;;;;;19.48;14.20;;;;;;;16.85;71.29;98527.09;5029985;28;20441;-74
2022/08/13 03:53:35;;;;;;;18.73;13.52;;;;;;;16.85;71.32;98529.03;5030695;28;20480;-74
2022/08/13 03:56:01;;;;;;;20.60;13.52;;;;;;;16.87;71.25;98526.75;5030598;28;20056;-74
2022/08/13 03:58:28;;;;;;;18.40;13.05;;;;;;;16.86;71.58;98520.41;5030074;28;20117;-74
2022/08/13 04:00:54;;;;;;;18.58;13.38;;;;;;;16.87;71.32;98521.19;5028952;28;20036;-74
2022/08/13 04:03:22;;;;;;;20.42;13.40;;;;;;;16.89;71.50;98529.97;5030489;28;20021;-74
2022/08/13 04:05:52;;;;;;;17.55;13.07;;;;;;;16.91;71.35;98525.72;5030552;28;20030;-74
2022/08/13 04:08:20;;;;;;;20.90;13.27;;;;;;;16.95;71.74;98526.66;5030534;28;20021;-74
2022/08/13 04:10:46;;;;;;;19.50;13.48;;;;;;;16.99;71.76;98523.25;5030335;28;20059;-74
2022/08/13 04:13:14;;;;;;;21.27;13.68;;;;;;;17.00;71.94;98527.66;5027583;28;20030;-74
2022/08/13 04:15:43;;;;;;;21.15;13.60;;;;;;;17.04;71.75;98525.81;5030186;28;20026;-74
2022/08/13 04:18:13;;;;;;;19.30;14.02;;;;;;;17.06;71.54;98532.69;5030044;28;20017;-73
2022/08/13 04:20:42;;;;;;;20.27;13.80;;;;;;;17.13;71.53;98531.28;5029874;28;20036;-74
2022/08/13 04:23:17;;;;;;;19.63;13.18;;;;;;;17.20;72.04;98535.16;5030494;28;20025;-74
2022/08/13 04:25:44;;;;;;;19.35;12.88;;;;;;;17.25;71.84;98528.59;5026866;28;20056;-74
2022/08/13 04:28:11;;;;;;;20.48;14.43;;;;;;;17.32;71.91;98530.84;5032561;28;20029;-74
2022/08/13 04:30:40;;;;;;;22.55;13.55;;;;;;;17.39;71.57;98526.34;5029466;28;20035;-74
2022/08/13 04:33:09;;;;;;;18.73;13.65;;;;;;;17.46;71.93;98531.34;5029873;28;20032;-74
2022/08/13 04:35:35;;;;;;;18.92;12.88;;;;;;;17.52;71.92;98523.66;5029859;28;20467;-74
2022/08/13 04:38:00;;;;;;;20.25;12.95;;;;;;;17.58;71.72;98532.56;5029629;28;20051;-75
2022/08/13 04:40:26;;;;;;;20.30;13.98;;;;;;;17.63;71.78;98524.81;5029506;28;20109;-74
2022/08/13 04:42:53;;;;;;;21.35;13.20;;;;;;;17.67;71.86;98528.53;5029454;28;20025;-74
2022/08/13 04:45:27;;;;;;;20.17;13.60;;;;;;;17.71;71.68;98532.25;5029968;28;20025;-74
2022/08/13 04:48:00;;;;;;;21.60;14.23;;;;;;;17.74;71.84;98536.28;5025499;28;20545;-74
2022/08/13 04:50:31;;;;;;;21.90;14.40;;;;;;;17.81;71.64;98536.53;5027408;28;20088;-74
2022/08/13 04:52:57;;;;;;;21.80;14.65;;;;;;;17.85;71.42;98531.13;5029568;28;20491;-74
2022/08/13 04:55:23;;;;;;;22.85;14.25;;;;;;;17.86;71.69;98519.69;5029895;28;20029;-74
2022/08/13 04:57:49;;;;;;;21.50;14.13;;;;;;;17.91;71.70;98518.66;5029533;28;20376;-74
2022/08/13 05:00:15;;;;;;;21.90;14.38;;;;;;;17.95;71.37;98510.44;5030417;28;20055;-74
2022/08/13 05:02:41;;;;;;;20.10;14.07;;;;;;;18.00;71.85;98505.50;5034189;28;20057;-74
2022/08/13 05:05:07;;;;;;;21.70;13.73;;;;;;;18.07;71.51;98504.94;5035127;28;20075;-74
2022/08/13 05:07:33;;;;;;;20.50;14.05;;;;;;;18.09;71.41;98505.41;5034583;28;20374;-74
2022/08/13 05:09:59;;;;;;;21.17;13.88;;;;;;;18.12;71.53;98510.28;5034883;28;20029;-74
2022/08/13 05:12:24;;;;;;;19.55;13.65;;;;;;;18.18;71.45;98513.63;5034567;28;20029;-75
2022/08/13 05:14:50;;;;;;;23.73;14.48;;;;;;;18.22;71.69;98509.00;5034877;28;20045;-74
2022/08/13 05:17:15;;;;;;;21.27;14.68;;;;;;;18.28;71.38;98504.03;5034848;28;20029;-74
2022/08/13 05:19:42;;;;;;;20.40;14.45;;;;;;;18.34;71.38;98508.19;5032493;28;20494;-74
2022/08/13 05:22:08;;;;;;;22.50;15.30;;;;;;;18.39;71.35;98505.19;5030902;28;20142;-74
2022/08/13 05:24:37;;;;;;;24.27;14.38;;;;;;;18.42;71.41;98504.50;5037201;28;20483;-73
2022/08/13 05:27:03;;;;;;;25.75;14.85;;;;;;;18.48;71.36;98502.28;5034583;28;20031;-74
2022/08/13 05:29:29;;;;;;;24.20;14.63;;;;;;;18.54;71.30;98508.44;5032843;28;20029;-74
2022/08/13 05:31:54;;;;;;;23.33;15.02;;;;;;;18.62;71.40;98507.47;5034133;28;20428;-73
2022/08/13 05:34:20;;;;;;;21.15;14.70;;;;;;;18.70;71.31;98511.31;5034549;28;20029;-73
2022/08/13 05:36:46;;;;;;;21.75;14.38;;;;;;;18.80;71.34;98507.22;5033651;28;20025;-74
2022/08/13 05:39:13;;;;;;;21.80;15.00;;;;;;;18.92;71.37;98509.16;5035723;28;20033;-73
2022/08/13 05:41:39;;;;;;;20.27;14.23;;;;;;;19.05;70.84;98510.78;5030435;28;20029;-74
2022/08/13 05:44:05;;;;;;;20.05;13.63;;;;;;;19.18;71.27;98509.56;5032670;28;20503;-74
2022/08/13 05:46:30;;;;;;;22.88;14.20;;;;;;;19.29;71.26;98511.88;5032690;28;20035;-74
2022/08/13 05:48:56;;;;;;;24.15;14.40;;;;;;;19.36;71.20;98505.72;5033160;28;20538;-75
2022/08/13 05:51:28;;;;;;;20.88;13.73;;;;;;;19.43;71.19;98511.44;5032779;28;20052;-74
2022/08/13 05:53:55;;;;;;;22.38;14.73;;;;;;;19.47;70.92;98506.81;5032532;28;20025;-74
2022/08/13 05:56:24;;;;;;;21.08;14.38;;;;;;;19.49;70.88;98510.03;5032241;28;20021;-74
2022/08/13 05:58:51;;;;;;;23.50;15.68;;;;;;;19.51;71.00;98515.25;5032944;28;20029;-74
2022/08/13 06:04:02;;;;;;;21.48;14.95;;;;;;;19.53;70.77;98516.50;5032282;28;20036;-74
2022/08/13 06:06:30;;;;;;;23.77;15.57;;;;;;;19.56;71.15;98503.88;5031160;28;20379;-74
2022/08/13 06:08:59;;;;;;;28.00;16.63;;;;;;;19.54;70.44;98507.00;5032667;28;20022;-74
2022/08/13 06:11:30;;;;;;;27.95;17.13;;;;;;;19.55;70.68;98511.41;5032286;28;20048;-75
2022/08/13 06:13:56;;;;;;;31.17;17.05;;;;;;;19.52;70.49;98509.34;5031978;28;20375;-74
2022/08/13 06:16:25;;;;;;;29.73;17.73;;;;;;;19.51;70.49;98523.59;5032237;28;20025;-76
2022/08/13 06:18:50;;;;;;;35.57;20.03;;;;;;;19.49;70.50;98516.44;5029955;28;20033;-74
2022/08/13 06:21:18;;;;;;;36.22;19.20;;;;;;;19.48;70.38;98520.38;5031881;28;20029;-74
2022/08/13 06:23:45;;;;;;;37.05;19.92;;;;;;;19.47;70.35;98520.72;5032069;28;20387;-75
2022/08/13 06:26:12;;;;;;;35.00;19.77;;;;;;;19.45;70.26;98509.13;5031113;28;20021;-74
2022/08/13 06:28:42;;;;;;;36.80;20.40;;;;;;;19.45;70.34;98507.16;5031832;28;20064;-74
2022/08/13 06:31:13;;;;;;;33.33;18.65;;;;;;;19.46;70.50;98516.31;5031858;28;20022;-74
2022/08/13 06:33:38;;;;;;;34.08;18.90;;;;;;;19.49;70.55;98516.44;5028016;28;20021;-74
2022/08/13 06:36:10;;;;;;;32.35;18.00;;;;;;;19.51;70.44;98518.03;5030895;28;20533;-74
2022/08/13 06:38:37;;;;;;;33.83;19.00;;;;;;;19.53;70.50;98526.84;5030816;28;20498;-74
2022/08/13 06:41:05;;;;;;;32.75;18.88;;;;;;;19.55;70.45;98516.97;5029295;28;20033;-74
2022/08/13 06:43:40;;;;;;;35.25;18.70;;;;;;;19.55;70.38;98519.75;5030724;28;20596;-75
2022/08/13 06:46:06;;;;;;;32.13;17.40;;;;;;;19.53;70.36;98515.72;5031799;28;20048;-74
2022/08/13 06:48:34;;;;;;;34.45;18.90;;;;;;;19.52;70.37;98512.13;5028616;28;20387;-73
2022/08/13 06:51:01;;;;;;;29.88;18.05;;;;;;;19.53;70.22;98518.50;5030554;28;20352;-74
2022/08/13 06:53:27;;;;;;;31.75;18.48;;;;;;;19.58;70.22;98518.22;5027820;28;20041;-73
2022/08/13 06:55:53;;;;;;;30.15;18.00;;;;;;;19.64;70.88;98511.25;5030726;28;20116;-74
2022/08/13 06:58:27;;;;;;;30.92;18.52;;;;;;;19.64;70.80;98506.50;5030412;28;20030;-74
2022/08/13 07:00:55;;;;;;;31.70;18.55;;;;;;;19.72;70.51;98510.28;5027614;28;20025;-74
2022/08/13 07:03:25;;;;;;;34.15;19.50;;;;;;;19.75;70.49;98503.19;5030996;28;20030;-73
2022/08/13 07:05:51;;;;;;;31.27;17.90;;;;;;;19.76;70.49;98515.94;5031635;28;20073;-73
2022/08/13 07:08:17;;;;;;;32.65;18.50;;;;;;;19.79;70.37;98513.25;5030031;28;20494;-73
2022/08/13 07:10:50;;;;;;;28.88;17.00;;;;;;;19.85;70.09;98504.66;5029926;28;20036;-73
2022/08/13 07:13:17;;;;;;;28.75;16.98;;;;;;;19.88;70.27;98513.09;5030934;28;20041;-73
2022/08/13 07:15:45;;;;;;;27.80;16.33;;;;;;;19.93;70.22;98501.72;5030978;28;20025;-73
2022/08/13 07:18:11;;;;;;;26.27;16.00;;;;;;;20.01;70.27;98501.91;5030784;28;20037;-73
2022/08/13 07:20:37;;;;;;;25.30;15.43;;;;;;;20.06;70.06;98508.00;5031376;28;20486;-72
2022/08/13 07:23:03;;;;;;;23.95;14.75;;;;;;;20.14;70.24;98505.41;5031140;28;20026;-73
2022/08/13 07:25:30;;;;;;;23.60;14.75;;;;;;;20.20;70.21;98504.75;5030452;28;20033;-73
2022/08/13 07:27:57;;;;;;;24.92;14.63;;;;;;;20.23;70.13;98508.81;5030824;28;20072;-73
2022/08/13 07:30:22;;;;;;;24.15;14.65;;;;;;;20.23;70.14;98501.25;5030918;28;20257;-72
2022/08/13 07:32:50;;;;;;;24.83;15.32;;;;;;;20.21;70.11;98505.59;5030461;28;20416;-73
2022/08/13 07:35:18;;;;;;;27.05;16.25;;;;;;;20.21;70.00;98511.16;5031074;28;20068;-73
2022/08/13 07:37:43;;;;;;;25.27;15.52;;;;;;;20.26;69.83;98502.53;5029584;28;20026;-73
2022/08/13 07:40:09;;;;;;;23.70;15.13;;;;;;;20.32;70.04;98506.66;5032501;28;20022;-74
2022/08/13 07:42:40;;;;;;;24.75;15.77;;;;;;;20.48;69.70;98506.66;5028786;28;20049;-71
2022/08/13 07:45:10;;;;;;;24.02;14.85;;;;;;;20.61;70.12;98506.50;5032112;28;20041;-72
2022/08/13 07:47:40;;;;;;;27.88;16.10;;;;;;;20.65;69.75;98504.63;5028696;28;20048;-73
2022/08/13 07:50:11;;;;;;;25.30;14.82;;;;;;;20.69;69.38;98497.16;5029626;28;20068;-73
2022/08/13 07:52:37;;;;;;;24.88;15.02;;;;;;;20.75;69.72;98508.84;5029056;28;20112;-72
2022/08/13 07:55:05;;;;;;;24.05;15.23;;;;;;;20.77;69.47;98504.53;5029402;28;20520;-71
2022/08/13 07:57:32;;;;;;;22.50;14.90;;;;;;;20.77;69.26;98504.53;5029322;28;20499;-71
2022/08/13 07:59:58;;;;;;;24.63;15.70;;;;;;;20.79;69.45;98509.72;5030582;28;20025;-71
2022/08/13 08:02:25;;;;;;;22.90;14.88;;;;;;;20.81;69.38;98508.22;5030268;28;20108;-71
2022/08/13 08:04:53;;;;;;;24.95;14.30;;;;;;;20.84;69.28;98501.09;5031044;28;20041;-71
2022/08/13 08:07:19;;;;;;;23.88;15.07;;;;;;;20.87;69.36;98494.78;5029581;28;20060;-70
2022/08/13 08:09:45;;;;;;;23.75;14.73;;;;;;;20.86;68.98;98490.38;5031340;28;20029;-71
2022/08/13 08:14:55;;;;;;;25.52;15.15;;;;;;;20.90;69.20;98501.63;5029194;28;20067;-70
2022/08/13 08:17:26;;;;;;;25.40;15.60;;;;;;;20.94;68.87;98510.88;5030377;28;20037;-71
2022/08/13 08:19:53;;;;;;;21.75;14.27;;;;;;;20.97;68.75;98499.78;5030499;28;20040;-71
2022/08/13 08:22:19;;;;;;;23.00;15.15;;;;;;;21.06;68.62;98493.22;5030300;28;20127;-72
2022/08/13 08:24:48;;;;;;;25.00;14.68;;;;;;;21.22;68.69;98498.72;5029945;28;20037;-71
2022/08/13 08:27:19;;;;;;;23.85;14.57;;;;;;;21.45;68.69;98490.41;5029868;28;20053;-71
2022/08/13 08:29:46;;;;;;;27.88;15.35;;;;;;;21.68;68.77;98495.25;5031710;28;20037;-71
2022/08/13 08:32:14;;;;;;;22.52;14.15;;;;;;;21.82;68.51;98498.31;5029420;28;20056;-71
2022/08/13 08:34:45;;;;;;;21.80;13.60;;;;;;;21.91;67.99;98491.69;5033174;28;20391;-71
2022/08/13 08:42:56;;;;;;;22.20;13.77;;;;;;;21.92;67.22;98490.50;5027352;28;20090;-70
2022/08/13 08:45:24;;;;;;;22.27;13.23;;;;;;;21.88;67.05;98496.00;5024365;28;20795;-72
2022/08/13 08:47:52;;;;;;;20.02;12.85;;;;;;;21.83;67.09;98496.31;5028141;28;20025;-70
2022/08/13 08:50:22;;;;;;;22.98;13.70;;;;;;;21.68;66.82;98495.25;5028751;28;20897;-73
2022/08/13 08:55:36;;;;;;;20.75;13.32;;;;;;;21.54;67.13;98496.56;5024854;28;20117;-72
2022/08/13 08:58:04;;;;;;;24.20;14.18;;;;;;;21.47;67.08;98495.59;5024532;28;20943;-71
2022/08/13 09:00:33;;;;;;;22.95;14.77;;;;;;;21.44;67.22;98493.56;5029304;28;20037;-70
2022/08/13 09:02:59;;;;;;;26.30;15.52;;;;;;;21.42;67.11;98493.94;5029783;28;20037;-71
2022/08/13 09:05:26;;;;;;;22.92;14.40;;;;;;;21.43;67.03;98489.97;5029999;28;20017;-72
2022/08/13 09:07:52;;;;;;;22.38;13.48;;;;;;;21.48;67.39;98489.69;5029647;28;20091;-73
2022/08/13 09:10:20;;;;;;;20.88;13.98;;;;;;;21.44;67.42;98493.56;5029746;28;20038;-72
2022/08/13 09:12:48;;;;;;;23.90;14.18;;;;;;;21.28;67.48;98500.03;5026848;28;20026;-74
2022/08/13 09:15:21;;;;;;;22.27;14.20;;;;;;;21.20;67.65;98495.47;5028184;28;20038;-73
2022/08/13 09:17:47;;;;;;;23.65;13.80;;;;;;;21.16;67.74;98486.22;5031097;28;20124;-72
2022/08/13 09:20:16;;;;;;;19.95;13.13;;;;;;;21.13;67.71;98487.78;5027127;28;20501;-71
2022/08/13 09:22:44;;;;;;;23.92;13.88;;;;;;;21.16;67.81;98486.22;5037817;28;20493;-72
2022/08/13 09:25:13;;;;;;;23.63;14.27;;;;;;;21.22;68.15;98487.56;5026388;28;20550;-72
2022/08/13 09:27:39;;;;;;;21.13;13.70;;;;;;;21.33;68.03;98487.75;4997414;28;20056;-73
2022/08/13 09:30:06;;;;;;;19.88;12.98;;;;;;;21.40;68.04;98482.34;4998696;28;20033;-73
2022/08/13 09:32:32;;;;;;;18.45;12.38;;;;;;;21.44;68.15;98491.59;5004184;28;20045;-71
2022/08/13 09:34:58;;;;;;;21.52;12.82;;;;;;;21.47;67.80;98488.06;5002158;28;20403;-71
2022/08/13 09:37:25;;;;;;;17.92;12.43;;;;;;;21.45;67.92;98484.00;5004671;28;20034;-71
2022/08/13 09:39:59;;;;;;;18.33;12.05;;;;;;;21.41;68.08;98483.94;4999621;28;20038;-71
2022/08/13 09:42:26;;;;;;;15.43;11.18;;;;;;;21.39;68.16;98486.31;5003239;28;20033;-71
2022/08/13 09:44:56;;;;;;;17.60;12.18;;;;;;;21.33;68.19;98479.41;5001862;28;20053;-73
2022/08/13 09:47:23;;;;;;;17.80;11.82;;;;;;;21.32;68.07;98477.78;4999186;28;20743;-72
2022/08/13 09:49:49;;;;;;;16.35;11.10;;;;;;;21.30;68.18;98477.34;5000963;28;20068;-73
2022/08/13 09:52:16;;;;;;;15.68;10.85;;;;;;;21.30;68.10;98474.56;5004796;28;20121;-72
2022/08/13 09:54:43;;;;;;;13.45;9.60;;;;;;;21.31;68.03;98481.75;5009771;28;20030;-74
2022/08/13 09:57:09;;;;;;;16.38;10.75;;;;;;;21.36;68.19;98478.66;5007581;28;20040;-71
2022/08/13 09:59:35;;;;;;;18.42;13.00;;;;;;;21.36;68.27;98481.44;5011559;28;20071;-72
2022/08/13 10:02:05;;;;;;;16.20;11.20;;;;;;;21.37;68.29;98471.91;5013393;28;20261;-71
2022/08/13 10:04:32;;;;;;;;;;;;;;;21.44;68.04;98474.03;5010648;28;20062;-71
2022/08/13 10:06:58;;;;;;;18.90;14.75;;;;;;;21.49;68.14;98466.19;5008787;28;19932;-71
2022/08/13 10:09:26;;;;;;;16.02;11.68;;;;;;;21.50;68.35;98461.38;5000628;28;20049;-73
2022/08/13 10:11:53;;;;;;;16.02;11.77;;;;;;;21.51;67.99;98463.00;4999554;28;20045;-72
2022/08/13 10:14:18;;;;;;;17.30;11.50;;;;;;;21.52;68.05;98456.25;5008727;28;20774;-72
2022/08/13 10:16:44;;;;;;;18.05;10.95;;;;;;;21.51;68.24;98460.22;5008758;28;20476;-72
2022/08/13 10:19:09;;;;;;;16.52;11.13;;;;;;;21.45;68.28;98456.94;5007161;28;20053;-72
2022/08/13 10:21:36;;;;;;;15.77;10.90;;;;;;;21.39;67.96;98458.41;5006819;28;20095;-71
2022/08/13 10:24:02;;;;;;;15.98;10.60;;;;;;;21.33;68.02;98455.13;5008544;28;20038;-70
2022/08/13 10:26:27;;;;;;;13.82;9.93;;;;;;;21.32;68.05;98459.09;5006731;28;20024;-70
2022/08/13 10:28:53;;;;;;;16.02;11.32;;;;;;;21.30;68.18;98450.28;5003673;28;20025;-70
2022/08/13 10:31:20;;;;;;;16.65;10.90;;;;;;;21.31;68.09;98454.69;4999258;28;20536;-70
2022/08/13 10:33:47;;;;;;;18.38;11.70;;;;;;;21.31;68.28;98451.06;5001146;28;20112;-70
2022/08/13 10:36:14;;;;;;;14.75;10.55;;;;;;;21.32;68.50;98449.88;5009520;28;20038;-70
2022/08/13 10:38:40;;;;;;;15.60;11.32;;;;;;;21.38;68.49;98449.25;5008092;28;20040;-71
2022/08/13 10:41:08;;;;;;;15.15;10.70;;;;;;;21.46;68.59;98440.97;5007048;28;20057;-70
2022/08/13 10:43:38;;;;;;;14.85;10.52;;;;;;;21.60;68.68;98438.47;5005915;28;20050;-71
2022/08/13 10:46:05;;;;;;;15.25;11.30;;;;;;;21.79;68.68;98442.41;5010881;28;20463;-71
2022/08/13 10:48:31;;;;;;;15.80;10.52;;;;;;;21.90;68.58;98432.22;5010254;28;20404;-70
2022/08/13 10:50:56;;;;;;;12.18;9.52;;;;;;;22.07;68.62;98430.91;5001541;28;20034;-71
2022/08/13 10:56:08;;;;;;;10.77;8.02;;;;;;;22.68;68.53;98425.44;5003736;28;20049;-73
2022/08/13 10:58:34;;;;;;;9.40;8.20;;;;;;;22.93;68.26;98426.97;5007288;28;20396;-72
2022/08/13 11:01:03;;;;;;;10.27;8.60;;;;;;;23.09;67.95;98421.94;5004746;28;20044;-73
2022/08/13 11:03:30;;;;;;;8.02;7.15;;;;;;;23.24;67.48;98422.16;5018054;28;20045;-73
2022/08/13 11:05:59;;;;;;;8.57;7.07;;;;;;;23.41;67.02;98420.72;5007806;28;20041;-74
2022/08/13 11:08:26;;;;;;;10.75;8.60;;;;;;;23.63;66.48;98416.16;5005735;28;20038;-72
2022/08/13 11:10:51;;;;;;;10.25;7.75;;;;;;;23.89;66.29;98418.00;5002654;28;20042;-73
2022/08/13 11:13:17;;;;;;;12.07;8.00;;;;;;;24.16;66.08;98411.44;4997712;28;20591;-73
2022/08/13 11:15:42;;;;;;;10.65;7.80;;;;;;;24.46;66.12;98410.41;4998233;28;20572;-73
2022/08/13 11:18:09;;;;;;;10.77;8.18;;;;;;;24.77;65.60;98405.41;5005287;28;20656;-74
2022/08/13 11:20:50;;;;;;;8.85;7.43;;;;;;;25.04;64.75;98399.50;5005926;28;20116;-75
2022/08/13 11:23:16;;;;;;;9.48;7.72;;;;;;;25.14;63.97;98389.50;5007906;28;20038;-74
2022/08/13 11:25:41;;;;;;;10.63;8.45;;;;;;;25.11;62.97;98389.09;5007262;28;20555;-75
2022/08/13 11:28:14;;;;;;;9.88;8.88;;;;;;;25.06;62.43;98389.47;5009132;28;20038;-75
2022/08/13 11:30:40;;;;;;;10.82;8.60;;;;;;;25.09;61.51;98383.09;5007246;28;20024;-74
2022/08/13 11:33:05;;;;;;;11.52;8.85;;;;;;;25.10;61.87;98386.69;5000901;28;20026;-75
2022/08/13 11:35:31;;;;;;;11.63;8.85;;;;;;;25.03;61.85;98392.28;4997761;28;20132;-74
2022/08/13 11:37:57;;;;;;;9.98;8.05;;;;;;;24.91;61.54;98383.03;5003762;28;20026;-74
2022/08/13 11:40:22;;;;;;;11.23;7.97;;;;;;;24.80;61.34;98385.78;5005965;28;20033;-73
2022/08/13 11:42:48;;;;;;;11.23;7.80;;;;;;;24.69;61.35;98379.28;5005283;28;20050;-74